createdAt,value
2018-11-28T00:00:13.514Z,48.50
2018-11-28T00:02:41.955Z,44.37
2018-11-28T00:05:12.264Z,44.97
2018-11-28T00:07:41.252Z,46.47
2018-11-28T00:10:11.806Z,42.37
2018-11-28T00:12:40.763Z,42.63
2018-11-28T00:15:10.540Z,46.07
2018-11-28T00:17:38.971Z,44.03
2018-11-28T00:20:11.831Z,45.77
2018-11-28T00:22:40.487Z,48.97
2018-11-28T00:25:09.637Z,48.07
2018-11-28T00:27:38.094Z,45.20
2018-11-28T00:30:24.514Z,47.63
2018-11-28T00:32:53.108Z,49.57
2018-11-28T00:35:22.707Z,45.73
2018-11-28T00:37:51.154Z,44.03
2018-11-28T00:40:20.899Z,48.00
2018-11-28T00:42:49.382Z,44.07
2018-11-28T00:45:19.520Z,43.83
2018-11-28T00:47:47.962Z,44.77
2018-11-28T00:50:25.282Z,44.97
2018-11-28T00:52:53.737Z,46.20
2018-11-28T00:55:22.177Z,43.10
2018-11-28T00:57:50.686Z,40.53
2018-11-28T01:00:20.826Z,42.80
2018-11-28T01:02:49.896Z,43.73
2018-11-28T01:05:18.702Z,44.70
2018-11-28T01:07:49.150Z,41.77
2018-11-28T01:10:18.846Z,45.87
2018-11-28T01:12:47.658Z,42.97
2018-11-28T01:15:16.951Z,42.40
2018-11-28T01:17:45.449Z,43.93
2018-11-28T01:20:15.994Z,46.33
2018-11-28T01:22:44.644Z,46.30
2018-11-28T01:25:16.031Z,42.53
2018-11-28T01:27:44.525Z,45.60
2018-11-28T01:30:15.122Z,43.40
2018-11-28T01:32:44.063Z,44.67
2018-11-28T01:35:14.490Z,41.40
2018-11-28T01:37:43.178Z,47.23
2018-11-28T01:40:15.574Z,41.83
2018-11-28T01:42:43.995Z,40.80
2018-11-28T01:45:15.515Z,42.73
2018-11-28T01:47:44.133Z,43.47
2018-11-28T01:50:14.435Z,41.77
2018-11-28T01:52:42.900Z,41.63
2018-11-28T01:55:12.476Z,42.70
2018-11-28T01:57:40.926Z,39.90
2018-11-28T02:00:17.614Z,40.83
2018-11-28T02:02:46.621Z,43.57
2018-11-28T02:05:15.058Z,46.73
2018-11-28T02:07:43.822Z,39.97
2018-11-28T02:10:13.544Z,41.27
2018-11-28T02:12:41.972Z,41.20
2018-11-28T02:15:11.877Z,41.80
2018-11-28T02:17:40.413Z,43.23
2018-11-28T02:20:11.155Z,41.93
2018-11-28T02:22:39.631Z,47.47
2018-11-28T02:25:10.415Z,36.60
2018-11-28T02:27:38.890Z,45.20
2018-11-28T02:30:10.906Z,41.93
2018-11-28T02:32:39.364Z,40.60
2018-11-28T02:35:09.334Z,41.13
2018-11-28T02:37:38.424Z,42.07
2018-11-28T02:40:08.647Z,46.47
2018-11-28T02:42:37.191Z,42.37
2018-11-28T02:45:09.213Z,46.57
2018-11-28T02:47:37.652Z,46.53
2018-11-28T02:50:06.783Z,46.27
2018-11-28T02:52:35.260Z,41.63
2018-11-28T02:55:03.759Z,47.17
2018-11-28T02:57:32.194Z,42.80
2018-11-28T03:00:00.657Z,48.63
2018-11-28T03:02:29.071Z,48.37
2018-11-28T03:04:57.517Z,48.00
2018-11-28T03:07:25.982Z,48.37
2018-11-28T03:09:54.469Z,46.33
2018-11-28T03:12:22.908Z,46.07
2018-11-28T03:14:51.424Z,47.13
2018-11-28T03:17:26.084Z,44.30
2018-11-28T03:19:54.592Z,44.27
2018-11-28T03:22:23.083Z,50.13
2018-11-28T03:24:51.522Z,49.93
2018-11-28T03:27:19.960Z,49.67
2018-11-28T03:29:48.398Z,47.60
2018-11-28T03:32:16.844Z,48.87
2018-11-28T03:34:45.650Z,48.47
2018-11-28T03:37:13.778Z,48.50
2018-11-28T03:39:42.227Z,51.20
2018-11-28T03:42:10.691Z,47.63
2018-11-28T03:44:39.132Z,54.13
2018-11-28T03:47:07.566Z,52.10
2018-11-28T03:49:36.031Z,52.43
2018-11-28T03:52:04.683Z,61.17
2018-11-28T03:54:36.800Z,58.50
2018-11-28T03:57:05.274Z,59.07
2018-11-28T03:59:33.730Z,60.80
2018-11-28T04:02:02.187Z,67.73
2018-11-28T04:04:30.618Z,63.53
2018-11-28T04:06:59.076Z,73.73
2018-11-28T04:09:27.557Z,69.97
2018-11-28T04:11:56.066Z,67.43
2018-11-28T04:14:24.512Z,61.80
2018-11-28T04:16:53.078Z,63.97
2018-11-28T04:19:21.547Z,66.67
2018-11-28T04:21:50.016Z,64.17
2018-11-28T04:24:18.479Z,71.53
2018-11-28T04:26:46.940Z,65.00
2018-11-28T04:29:15.408Z,66.40
2018-11-28T04:31:43.882Z,66.90
2018-11-28T04:34:12.331Z,62.83
2018-11-28T04:36:40.787Z,74.50
2018-11-28T04:39:09.290Z,70.13
2018-11-28T04:41:37.751Z,68.73
2018-11-28T04:44:06.188Z,72.60
2018-11-28T04:46:34.655Z,68.97
2018-11-28T04:49:03.106Z,70.23
2018-11-28T04:51:31.536Z,73.67
2018-11-28T04:54:00.050Z,76.60
2018-11-28T04:56:28.494Z,70.90
2018-11-28T04:58:56.930Z,70.17
2018-11-28T05:01:25.390Z,72.93
2018-11-28T05:03:53.914Z,67.77
2018-11-28T05:06:37.424Z,70.63
2018-11-28T05:09:06.687Z,65.77
2018-11-28T05:11:35.128Z,66.20
2018-11-28T05:14:03.683Z,66.53
2018-11-28T05:16:32.130Z,67.83
2018-11-28T05:19:00.566Z,62.77
2018-11-28T05:21:29.023Z,65.40
2018-11-28T05:23:57.483Z,59.13
2018-11-28T05:26:26.017Z,66.30
2018-11-28T05:28:54.541Z,59.47
2018-11-28T05:31:22.979Z,60.40
2018-11-28T05:33:51.486Z,62.93
2018-11-28T05:36:20.024Z,60.33
2018-11-28T05:38:48.453Z,63.20
2018-11-28T05:41:16.876Z,59.97
2018-11-28T05:43:45.458Z,56.03
2018-11-28T05:46:13.898Z,61.00
2018-11-28T05:48:42.326Z,66.17
2018-11-28T05:51:10.858Z,56.90
2018-11-28T05:53:39.339Z,59.27
2018-11-28T05:56:07.792Z,59.53
2018-11-28T05:58:36.227Z,53.63
2018-11-28T06:01:04.667Z,65.00
2018-11-28T06:03:33.133Z,57.90
2018-11-28T06:06:01.585Z,67.23
2018-11-28T06:08:30.044Z,56.73
2018-11-28T06:10:58.484Z,61.60
2018-11-28T06:13:26.922Z,60.13
2018-11-28T06:15:55.483Z,56.50
2018-11-28T06:18:23.944Z,62.27
2018-11-28T06:20:52.396Z,60.47
2018-11-28T06:23:20.834Z,57.73
2018-11-28T06:25:49.291Z,59.07
2018-11-28T06:28:17.750Z,57.67
2018-11-28T06:30:46.257Z,60.53
2018-11-28T06:33:14.740Z,66.87
2018-11-28T06:35:43.242Z,51.17
2018-11-28T06:38:11.818Z,55.20
2018-11-28T06:40:40.273Z,53.33
2018-11-28T06:43:08.768Z,57.07
2018-11-28T06:45:37.202Z,50.60
2018-11-28T06:48:05.961Z,58.40
2018-11-28T06:50:34.410Z,45.37
2018-11-28T06:53:02.882Z,48.37
2018-11-28T06:55:31.319Z,45.87
2018-11-28T06:57:59.777Z,48.03
2018-11-28T07:00:28.240Z,46.07
2018-11-28T07:02:56.703Z,56.43
2018-11-28T07:05:25.187Z,62.00
2018-11-28T07:07:53.940Z,51.93
2018-11-28T07:10:22.970Z,50.30
2018-11-28T07:12:51.714Z,48.63
2018-11-28T07:15:23.422Z,51.47
2018-11-28T07:17:51.960Z,55.30
2018-11-28T07:20:20.479Z,49.57
2018-11-28T07:22:48.952Z,49.10
2018-11-28T07:25:19.119Z,44.73
2018-11-28T07:27:48.463Z,43.53
2018-11-28T07:30:21.783Z,43.20
2018-11-28T07:32:52.340Z,45.07
2018-11-28T07:35:20.812Z,46.33
2018-11-28T07:37:49.267Z,45.70
2018-11-28T07:40:19.050Z,44.97
2018-11-28T07:43:13.619Z,47.83
2018-11-28T07:45:43.828Z,41.83
2018-11-28T07:48:12.292Z,44.13
2018-11-28T07:50:40.714Z,46.33
2018-11-28T07:53:09.162Z,43.80
2018-11-28T07:55:37.639Z,44.70
2018-11-28T07:58:06.669Z,43.07
2018-11-28T08:00:36.078Z,40.70
2018-11-28T08:03:05.918Z,46.20
2018-11-28T08:05:34.426Z,45.53
2018-11-28T08:08:02.921Z,41.80
2018-11-28T08:10:31.460Z,42.47
2018-11-28T08:12:59.925Z,38.70
2018-11-28T08:15:28.411Z,43.17
2018-11-28T08:17:56.893Z,41.13
2018-11-28T08:20:25.358Z,34.47
2018-11-28T08:22:53.817Z,33.57
2018-11-28T08:25:27.525Z,35.00
2018-11-28T08:27:51.227Z,42.97
2018-11-28T08:30:23.482Z,33.97
2018-11-28T08:32:52.890Z,37.10
2018-11-28T08:35:21.412Z,36.07
2018-11-28T08:37:52.744Z,34.47
2018-11-28T08:40:24.115Z,32.73
2018-11-28T08:42:53.286Z,29.20
2018-11-28T08:45:22.154Z,31.67
2018-11-28T08:47:51.952Z,35.73
2018-11-28T08:50:53.248Z,34.13
2018-11-28T08:53:21.821Z,29.83
2018-11-28T08:55:50.256Z,30.43
2018-11-28T08:58:18.724Z,29.07
2018-11-28T09:00:47.166Z,30.03
2018-11-28T09:03:15.641Z,28.83
2018-11-28T09:05:44.094Z,28.03
2018-11-28T09:08:12.551Z,29.03
2018-11-28T09:10:40.978Z,32.40
2018-11-28T09:19:57.253Z,25.37
2018-11-28T09:22:25.742Z,30.30
2018-11-28T09:24:54.169Z,30.00
2018-11-28T09:27:22.621Z,29.13
2018-11-28T09:29:51.077Z,34.00
2018-11-28T09:32:19.531Z,29.17
2018-11-28T09:34:47.982Z,30.50
2018-11-28T09:37:16.426Z,31.80
2018-11-28T09:39:44.880Z,29.50
2018-11-28T09:42:13.310Z,34.10
2018-11-28T09:44:41.755Z,29.57
2018-11-28T09:47:10.203Z,28.87
2018-11-28T09:49:38.681Z,31.97
2018-11-28T09:52:07.128Z,31.27
2018-11-28T09:54:35.611Z,29.13
2018-11-28T09:57:04.081Z,34.07
2018-11-28T09:59:32.548Z,30.20
2018-11-28T10:02:01.003Z,27.50
2018-11-28T10:04:29.514Z,23.97
2018-11-28T10:06:57.971Z,26.37
2018-11-28T10:09:26.459Z,31.50
2018-11-28T10:11:55.564Z,31.80
2018-11-28T10:14:24.016Z,24.83
2018-11-28T10:16:52.847Z,28.97
2018-11-28T10:19:21.067Z,28.80
2018-11-28T10:21:49.522Z,24.80
2018-11-28T10:24:17.967Z,26.50
2018-11-28T10:26:46.431Z,24.50
2018-11-28T10:29:14.989Z,24.70
2018-11-28T10:31:43.455Z,27.40
2018-11-28T10:34:11.942Z,29.13
2018-11-28T10:36:40.381Z,24.83
2018-11-28T10:39:09.520Z,27.13
2018-11-28T10:41:37.977Z,24.23
2018-11-28T10:44:06.461Z,24.13
2018-11-28T10:46:35.095Z,24.83
2018-11-28T10:49:03.684Z,21.07
2018-11-28T10:51:32.127Z,21.47
2018-11-28T10:54:00.564Z,21.87
2018-11-28T10:56:29.028Z,21.57
2018-11-28T10:58:57.579Z,21.63
2018-11-28T11:01:26.975Z,21.83
2018-11-28T11:04:00.502Z,17.33
2018-11-28T11:12:11.481Z,21.10
2018-11-28T11:14:46.525Z,14.57
2018-11-28T11:17:15.094Z,14.67
2018-11-28T11:19:43.717Z,17.73
2018-11-28T11:22:12.246Z,15.70
2018-11-28T11:24:40.682Z,14.67
2018-11-28T11:27:09.128Z,14.87
2018-11-28T11:29:37.580Z,17.27
2018-11-28T11:32:06.026Z,14.27
2018-11-28T11:34:34.912Z,15.30
2018-11-28T11:37:03.378Z,13.23
2018-11-28T11:39:31.821Z,17.77
2018-11-28T11:42:00.266Z,14.30
2018-11-28T11:44:28.703Z,14.73
2018-11-28T11:46:57.132Z,11.93
2018-11-28T11:49:25.577Z,13.53
2018-11-28T11:51:54.031Z,13.87
2018-11-28T11:54:22.490Z,13.10
2018-11-28T11:56:50.944Z,13.23
2018-11-28T11:59:19.409Z,10.97
2018-11-28T12:01:47.876Z,12.87
2018-11-28T12:04:16.307Z,13.70
2018-11-28T12:06:44.850Z,12.23
2018-11-28T12:09:13.297Z,11.77
2018-11-28T12:11:41.722Z,14.33
2018-11-28T12:14:10.274Z,12.10
2018-11-28T12:16:38.781Z,14.37
2018-11-28T12:19:07.238Z,11.50
2018-11-28T12:21:35.837Z,12.47
2018-11-28T12:24:04.378Z,11.43
2018-11-28T12:26:32.836Z,11.90
2018-11-28T12:29:01.279Z,11.77
2018-11-28T12:31:29.727Z,11.93
2018-11-28T12:33:58.179Z,11.47
2018-11-28T12:36:26.627Z,9.90
2018-11-28T12:38:55.081Z,12.50
2018-11-28T12:41:23.527Z,11.17
2018-11-28T12:43:51.994Z,12.53
2018-11-28T12:46:20.472Z,12.33
2018-11-28T12:48:49.018Z,11.30
2018-11-28T12:51:17.463Z,12.47
2018-11-28T12:53:45.906Z,13.63
2018-11-28T12:56:14.334Z,14.23
2018-11-28T12:58:42.783Z,15.73
2018-11-28T13:01:11.247Z,14.77
2018-11-28T13:03:39.675Z,15.73
2018-11-28T13:06:08.137Z,16.23
2018-11-28T13:08:38.883Z,16.60
2018-11-28T13:11:08.372Z,16.80
2018-11-28T13:13:36.985Z,14.43
2018-11-28T13:16:05.794Z,15.80
2018-11-28T13:18:34.303Z,15.63
2018-11-28T13:21:02.730Z,15.97
2018-11-28T13:23:31.256Z,16.27
2018-11-28T13:25:59.695Z,15.60
2018-11-28T13:28:28.135Z,15.63
2018-11-28T13:30:56.682Z,19.80
2018-11-28T13:33:25.130Z,17.33
2018-11-28T13:35:53.653Z,17.50
2018-11-28T13:40:50.610Z,15.30
2018-11-28T13:43:19.027Z,16.57
2018-11-28T13:45:48.567Z,14.33
2018-11-28T13:48:17.541Z,13.83
2018-11-28T13:50:46.024Z,16.47
2018-11-28T13:53:15.992Z,17.97
2018-11-28T13:56:30.165Z,19.87
2018-11-28T13:58:15.823Z,16.60
2018-11-28T14:00:44.256Z,13.90
2018-11-28T14:03:12.730Z,17.17
2018-11-28T14:05:42.884Z,13.60
2018-11-28T14:08:11.343Z,15.97
2018-11-28T14:10:39.762Z,13.70
2018-11-28T14:13:08.212Z,13.87
2018-11-28T14:15:36.717Z,15.10
2018-11-28T14:18:10.980Z,15.50
2018-11-28T14:20:39.451Z,13.00
2018-11-28T14:23:08.018Z,16.07
2018-11-28T14:25:37.031Z,14.47
2018-11-28T14:28:05.935Z,15.70
2018-11-28T14:30:34.488Z,15.33
2018-11-28T14:33:03.043Z,14.73
2018-11-28T14:35:31.655Z,13.50
2018-11-28T14:38:00.212Z,16.83
2018-11-28T14:40:28.685Z,15.50
2018-11-28T14:42:58.221Z,16.70
2018-11-28T14:45:27.400Z,18.33
2018-11-28T14:47:55.844Z,19.67
2018-11-28T14:50:28.159Z,15.53
2018-11-28T14:52:59.595Z,17.97
2018-11-28T14:55:30.202Z,16.10
2018-11-28T14:57:58.658Z,19.47
2018-11-28T15:00:29.051Z,18.53
2018-11-28T15:03:08.088Z,18.33
2018-11-28T15:06:16.465Z,18.47
2018-11-28T15:12:11.629Z,16.57
2018-11-28T15:14:37.748Z,17.77
2018-11-28T15:17:06.367Z,18.33
2018-11-28T15:19:34.789Z,17.87
2018-11-28T15:22:03.307Z,20.53
2018-11-28T15:27:53.145Z,18.90
2018-11-28T15:30:21.622Z,17.57
2018-11-28T15:32:50.075Z,20.93
2018-11-28T15:38:40.647Z,23.00
2018-11-28T15:41:09.140Z,22.57
2018-11-28T15:43:39.257Z,24.53
2018-11-28T15:46:07.768Z,23.10
2018-11-28T15:48:36.223Z,21.13
2018-11-28T15:51:05.027Z,24.90
2018-11-28T15:53:33.468Z,22.30
2018-11-28T15:56:02.938Z,27.30
2018-11-28T15:58:44.209Z,25.07
2018-11-28T16:01:12.725Z,25.63
2018-11-28T16:03:41.232Z,28.33
2018-11-28T16:06:09.696Z,27.43
2018-11-28T16:08:38.164Z,30.43
2018-11-28T16:11:10.035Z,31.37
2018-11-28T16:13:38.511Z,29.50
2018-11-28T16:16:14.771Z,40.60
2018-11-28T16:18:50.676Z,30.63
2018-11-28T16:21:20.558Z,35.03
2018-11-28T16:23:49.479Z,32.83
2018-11-28T16:29:40.480Z,35.27
2018-11-28T16:32:09.095Z,40.23
2018-11-28T16:34:37.558Z,35.07
2018-11-28T16:37:07.678Z,36.47
2018-11-28T16:39:36.152Z,38.37
2018-11-28T16:42:04.612Z,37.50
2018-11-28T16:44:33.098Z,33.57
2018-11-28T16:47:01.661Z,37.10
2018-11-28T16:49:30.107Z,38.73
2018-11-28T16:51:59.057Z,39.13
2018-11-28T16:54:27.805Z,38.90
2018-11-28T16:56:56.246Z,37.57
2018-11-28T16:59:24.693Z,41.43
2018-11-28T17:01:56.659Z,44.67
2018-11-28T17:04:25.132Z,43.23
2018-11-28T17:06:53.683Z,43.53
2018-11-28T17:09:22.507Z,43.70
2018-11-28T17:11:50.982Z,41.20
2018-11-28T17:14:19.482Z,42.10
2018-11-28T17:16:47.928Z,47.63
2018-11-28T17:19:16.385Z,43.23
2018-11-28T17:21:44.839Z,38.37
2018-11-28T17:24:13.277Z,42.73
2018-11-28T17:26:41.751Z,43.40
2018-11-28T17:29:10.222Z,39.63
2018-11-28T17:31:38.754Z,41.90
2018-11-28T17:34:07.235Z,41.73
2018-11-28T17:36:35.667Z,44.23
2018-11-28T17:39:11.257Z,43.43
2018-11-28T17:41:40.504Z,41.93
2018-11-28T17:44:08.960Z,43.20
2018-11-28T17:46:37.468Z,39.27
2018-11-28T17:49:07.584Z,44.43
2018-11-28T17:51:36.045Z,43.47
2018-11-28T17:57:26.600Z,41.07
2018-11-28T17:59:55.096Z,38.77
2018-11-28T18:02:23.666Z,38.23
2018-11-28T18:04:52.149Z,35.37
2018-11-28T18:07:20.639Z,36.03
2018-11-28T18:09:49.352Z,34.47
2018-11-28T18:12:17.856Z,33.87
2018-11-28T18:14:46.304Z,49.73
2018-11-28T18:17:14.782Z,36.03
2018-11-28T18:19:43.259Z,35.43
2018-11-28T18:22:11.734Z,41.80
2018-11-28T18:24:41.183Z,39.33
2018-11-28T18:27:09.647Z,40.00
2018-11-28T18:29:38.135Z,37.63
2018-11-28T18:32:40.864Z,34.87
2018-11-28T18:35:10.655Z,38.80
2018-11-28T18:37:39.801Z,37.27
2018-11-28T18:40:10.659Z,34.33
2018-11-28T18:42:39.325Z,38.60
2018-11-28T18:45:12.005Z,40.10
2018-11-28T18:47:41.486Z,38.40
2018-11-28T18:50:10.911Z,40.83
2018-11-28T18:56:00.386Z,44.07
2018-11-28T18:58:28.908Z,42.20
2018-11-28T19:00:57.371Z,43.83
2018-11-28T19:03:25.836Z,39.77
2018-11-28T19:05:54.629Z,41.97
2018-11-28T19:08:23.089Z,44.53
2018-11-28T19:10:51.817Z,43.87
2018-11-28T19:13:20.320Z,43.27
2018-11-28T19:15:48.944Z,44.00
2018-11-28T19:18:17.421Z,46.10
2018-11-28T19:20:45.908Z,44.47
2018-11-28T19:23:14.355Z,47.63
2018-11-28T19:25:42.930Z,47.93
2018-11-28T19:28:11.407Z,48.10
2018-11-28T19:30:41.141Z,45.87
2018-11-28T19:33:12.771Z,50.03
2018-11-28T19:35:41.270Z,45.83
2018-11-28T19:38:11.081Z,42.33
2018-11-28T19:40:47.900Z,41.03
2018-11-28T19:43:19.968Z,46.50
2018-11-28T19:45:48.417Z,44.30
2018-11-28T19:48:16.877Z,45.13
2018-11-28T19:50:45.343Z,47.70
2018-11-28T20:10:40.908Z,44.50
2018-11-28T20:13:10.210Z,44.67
2018-11-28T20:15:41.380Z,42.60
2018-11-28T20:18:09.882Z,49.83
2018-11-28T20:20:38.363Z,41.50
2018-11-28T20:23:07.777Z,45.77
2018-11-28T20:25:36.532Z,44.47
2018-11-28T20:28:05.091Z,41.10
2018-11-28T20:30:38.309Z,44.30
2018-11-28T20:33:07.520Z,43.07
2018-11-28T20:35:36.454Z,40.30
2018-11-28T20:38:05.113Z,41.37
2018-11-28T20:40:34.124Z,44.63
2018-11-28T20:43:02.645Z,38.83
2018-11-28T20:45:31.138Z,37.40
2018-11-28T20:47:59.615Z,42.27
2018-11-28T20:50:29.727Z,36.83
2018-11-28T20:53:00.085Z,41.73
2018-11-28T20:55:28.585Z,35.03
2018-11-28T20:57:57.132Z,34.50
2018-11-28T21:00:25.971Z,34.17
2018-11-28T21:02:54.675Z,34.30
2018-11-28T21:05:23.431Z,36.40
2018-11-28T21:07:52.014Z,34.03
2018-11-28T21:10:26.093Z,33.50
2018-11-28T21:12:54.571Z,37.67
2018-11-28T21:15:23.077Z,32.07
2018-11-28T21:17:51.553Z,30.37
2018-11-28T21:20:22.290Z,30.63
2018-11-28T21:22:55.785Z,34.23
2018-11-28T21:25:24.279Z,31.97
2018-11-28T21:27:52.781Z,34.73
2018-11-28T21:30:21.616Z,26.23
2018-11-28T21:32:51.446Z,32.00
2018-11-28T21:35:22.793Z,30.03
2018-11-28T21:37:51.364Z,26.43
2018-11-28T21:40:20.376Z,30.80
2018-11-28T21:42:48.904Z,28.70
2018-11-28T21:45:18.445Z,27.27
2018-11-28T21:47:46.923Z,28.27
2018-11-28T21:50:16.463Z,26.77
2018-11-28T21:52:45.134Z,25.60
2018-11-28T21:55:18.689Z,27.13
2018-11-28T21:57:47.293Z,20.23
2018-11-28T22:00:22.034Z,23.67
2018-11-28T22:02:50.548Z,24.03
2018-11-28T22:05:19.092Z,21.03
2018-11-28T22:07:47.602Z,22.27
2018-11-28T22:10:24.541Z,22.87
2018-11-28T22:12:53.897Z,23.07
2018-11-28T22:15:22.361Z,22.07
2018-11-28T22:17:52.870Z,18.40
2018-11-28T22:20:21.434Z,21.17
2018-11-28T22:22:49.948Z,21.07
2018-11-28T22:25:21.231Z,19.53
2018-11-28T22:27:49.744Z,21.17
2018-11-28T22:30:21.509Z,21.03
2018-11-28T22:32:50.113Z,20.83
2018-11-28T22:35:18.771Z,20.87
2018-11-28T22:37:47.351Z,21.07
2018-11-28T22:40:23.219Z,17.00
2018-11-28T22:42:52.116Z,24.77
2018-11-28T22:45:22.497Z,24.37
2018-11-28T22:47:51.003Z,28.40
2018-11-28T22:50:19.527Z,21.97
2018-11-28T22:52:48.120Z,24.63
2018-11-28T22:55:17.276Z,21.83
2018-11-28T22:57:45.855Z,20.17
2018-11-28T23:03:09.814Z,25.17
2018-11-28T23:05:48.384Z,28.63
2018-11-28T23:08:17.911Z,24.50
2018-11-28T23:10:46.664Z,24.70
2018-11-28T23:13:16.396Z,24.97
2018-11-28T23:15:44.879Z,24.67
2018-11-28T23:18:13.340Z,22.73
2018-11-28T23:20:41.834Z,20.17
2018-11-28T23:23:10.353Z,25.00
2018-11-28T23:25:38.821Z,25.03
2018-11-28T23:28:08.003Z,23.37
2018-11-28T23:30:37.205Z,22.17
2018-11-28T23:33:08.329Z,18.83
2018-11-28T23:35:36.037Z,24.40
2018-11-28T23:38:04.543Z,23.10
2018-11-28T23:40:33.063Z,23.00
2018-11-28T23:43:01.613Z,21.47
2018-11-28T23:45:30.609Z,22.53
2018-11-28T23:47:59.072Z,20.93
2018-11-28T23:50:27.522Z,20.43
2018-11-28T23:52:56.462Z,21.53
2018-11-28T23:55:28.182Z,17.73
2018-11-28T23:57:56.769Z,21.10
